Time;durP1;ratioP1;P1;durP2;ratioP2;P2;SDS_P1;SDS_P2;PMS_P1;PMS_P2;Temp;Humidity;BMP_temperature;BMP_pressure;BME280_temperature;BME280_humidity;BME280_pressure;Samples;Min_cycle;Max_cycle;Signal;HPM_P1;HPM_P2
2023/07/10 00:01:29;;;;;;;6.60;5.72;;;;;;;;;;5100243;28;20243;-63
2023/07/10 00:03:57;;;;;;;6.15;5.65;;;;;;;;;;5100501;28;20242;-63
2023/07/10 00:06:27;;;;;;;6.45;5.90;;;;;;;;;;5100860;28;20204;-63
2023/07/10 00:09:04;;;;;;;6.60;6.10;;;;;;;;;;5100759;28;20208;-63
2023/07/10 00:11:35;;;;;;;6.40;5.93;;;;;;;;;;5100545;28;20203;-63
2023/07/10 00:14:06;;;;;;;6.40;5.80;;;;;;;;;;5100770;28;20218;-63
2023/07/10 00:16:34;;;;;;;6.30;5.70;;;;;;;;;;5100500;28;20253;-63
2023/07/10 00:19:14;;;;;;;6.50;6.00;;;;;;;;;;5100483;28;20210;-63
2023/07/10 00:21:47;;;;;;;6.35;5.80;;;;;;;;;;5100365;28;20294;-63
2023/07/10 00:24:16;;;;;;;6.90;6.00;;;;;;;;;;5100554;28;20297;-63
2023/07/10 00:26:49;;;;;;;6.30;5.70;;;;;;;;;;5100125;28;20230;-63
2023/07/10 00:29:19;;;;;;;6.15;5.65;;;;;;;;;;5099836;28;20230;-63
2023/07/10 00:31:49;;;;;;;6.90;5.85;;;;;;;;;;5100394;28;20306;-63
2023/07/10 00:34:25;;;;;;;6.65;5.90;;;;;;;;;;5099786;28;20210;-63
2023/07/10 00:36:54;;;;;;;6.18;5.68;;;;;;;;;;5099495;28;20227;-63
2023/07/10 00:39:25;;;;;;;6.45;5.95;;;;;;;;;;5100260;28;20211;-63
2023/07/10 00:42:00;;;;;;;6.93;6.32;;;;;;;;;;5099629;28;20225;-63
2023/07/10 00:44:30;;;;;;;6.63;6.03;;;;;;;;;;5099551;28;20272;-63
2023/07/10 00:47:03;;;;;;;6.65;6.07;;;;;;;;;;5099912;28;20206;-63
2023/07/10 00:49:39;;;;;;;7.07;5.70;;;;;;;;;;5099794;28;20211;-63
2023/07/10 00:52:10;;;;;;;6.47;5.97;;;;;;;;;;5099833;28;20213;-63
2023/07/10 00:54:41;;;;;;;6.05;5.60;;;;;;;;;;5099340;28;20340;-63
2023/07/10 00:57:20;;;;;;;6.38;5.78;;;;;;;;;;5099834;28;20203;-63
2023/07/10 00:59:48;;;;;;;6.68;6.05;;;;;;;;;;5099507;28;20519;-63
2023/07/10 01:02:22;;;;;;;7.68;6.03;;;;;;;;;;5098954;28;20212;-63
2023/07/10 01:04:57;;;;;;;7.03;6.43;;;;;;;;;;5099780;28;20448;-63
2023/07/10 01:07:28;;;;;;;6.45;5.95;;;;;;;;;;5099849;28;20211;-63
2023/07/10 01:09:59;;;;;;;6.82;5.68;;;;;;;;;;5098940;28;20210;-63
2023/07/10 01:12:33;;;;;;;6.68;6.15;;;;;;;;;;5099641;28;20213;-63
2023/07/10 01:15:04;;;;;;;7.28;6.35;;;;;;;;;;5099284;28;20223;-63
2023/07/10 01:17:35;;;;;;;6.72;6.13;;;;;;;;;;5099710;28;20230;-63
2023/07/10 01:20:09;;;;;;;6.43;5.93;;;;;;;;;;5099298;28;20607;-63
2023/07/10 01:22:41;;;;;;;6.25;5.75;;;;;;;;;;5099247;28;20211;-63
2023/07/10 01:25:19;;;;;;;6.90;6.30;;;;;;;;;;5099449;28;20221;-63
2023/07/10 01:27:48;;;;;;;6.70;6.00;;;;;;;;;;5098707;28;20211;-63
2023/07/10 01:30:22;;;;;;;6.72;6.13;;;;;;;;;;5099545;28;20552;-63
2023/07/10 01:32:52;;;;;;;7.22;6.28;;;;;;;;;;5099549;28;20204;-63
2023/07/10 01:35:20;;;;;;;7.05;6.35;;;;;;;;;;5098890;28;20249;-63
2023/07/10 01:37:51;;;;;;;6.82;6.22;;;;;;;;;;5080817;28;20204;-63
2023/07/10 01:40:25;;;;;;;7.05;6.35;;;;;;;;;;5098989;28;20246;-63
2023/07/10 01:42:55;;;;;;;6.90;6.28;;;;;;;;;;5099161;28;20203;-63
2023/07/10 01:45:25;;;;;;;7.25;6.63;;;;;;;;;;5099295;28;20269;-63
2023/07/10 01:47:59;;;;;;;6.80;6.20;;;;;;;;;;5098893;28;20716;-63
2023/07/10 01:50:30;;;;;;;6.85;6.35;;;;;;;;;;5099468;28;20476;-63
2023/07/10 01:53:00;;;;;;;6.75;6.15;;;;;;;;;;5098753;28;20211;-63
2023/07/10 01:55:31;;;;;;;6.65;6.05;;;;;;;;;;5098601;28;20238;-63
2023/07/10 01:58:04;;;;;;;7.05;6.55;;;;;;;;;;5098661;28;20269;-62
2023/07/10 02:00:33;;;;;;;7.00;6.32;;;;;;;;;;5098944;28;20208;-63
2023/07/10 02:03:04;;;;;;;6.93;6.32;;;;;;;;;;5098934;28;20336;-63
2023/07/10 02:05:33;;;;;;;7.00;6.28;;;;;;;;;;5098287;28;20200;-63
2023/07/10 02:08:12;;;;;;;7.63;6.15;;;;;;;;;;5097796;28;20464;-64
2023/07/10 02:10:40;;;;;;;6.47;5.88;;;;;;;;;;5098629;28;20211;-63
2023/07/10 02:13:09;;;;;;;6.78;5.90;;;;;;;;;;5080254;28;20247;-63
2023/07/10 02:15:39;;;;;;;6.60;6.00;;;;;;;;;;5098457;28;20491;-63
2023/07/10 02:18:07;;;;;;;6.32;5.72;;;;;;;;;;5098563;28;20269;-62
2023/07/10 02:20:36;;;;;;;6.35;5.70;;;;;;;;;;5098469;28;20203;-67
2023/07/10 02:23:05;;;;;;;6.80;6.20;;;;;;;;;;5098305;28;20203;-63
2023/07/10 02:25:33;;;;;;;6.57;6.00;;;;;;;;;;5098189;28;20211;-63
2023/07/10 02:28:01;;;;;;;6.88;6.28;;;;;;;;;;5098384;28;20300;-63
2023/07/10 02:30:29;;;;;;;7.07;6.38;;;;;;;;;;5098072;28;20204;-63
2023/07/10 02:32:57;;;;;;;7.07;6.38;;;;;;;;;;5098032;28;20203;-63
2023/07/10 02:35:24;;;;;;;7.53;6.40;;;;;;;;;;5097887;28;20219;-63
2023/07/10 02:37:52;;;;;;;7.10;6.50;;;;;;;;;;5097892;28;20230;-63
2023/07/10 02:40:21;;;;;;;7.20;6.60;;;;;;;;;;5098125;28;20203;-63
2023/07/10 02:42:50;;;;;;;6.75;6.22;;;;;;;;;;5097994;28;20298;-63
2023/07/10 02:45:18;;;;;;;7.18;6.57;;;;;;;;;;5097780;28;20621;-63
2023/07/10 02:47:47;;;;;;;7.15;6.55;;;;;;;;;;5097744;28;20268;-63
2023/07/10 02:50:16;;;;;;;6.97;6.38;;;;;;;;;;5097543;28;20203;-63
2023/07/10 02:52:44;;;;;;;7.00;6.40;;;;;;;;;;5097556;28;20214;-63
2023/07/10 02:55:12;;;;;;;6.53;5.93;;;;;;;;;;5097382;28;20239;-63
2023/07/10 02:57:41;;;;;;;7.25;6.65;;;;;;;;;;5097606;28;20613;-63
2023/07/10 03:00:11;;;;;;;7.35;6.70;;;;;;;;;;5097439;28;20203;-63
2023/07/10 03:02:40;;;;;;;7.25;6.55;;;;;;;;;;5097373;28;20579;-63
2023/07/10 03:05:09;;;;;;;7.80;6.40;;;;;;;;;;5096796;28;20215;-62
2023/07/10 03:07:39;;;;;;;7.13;6.53;;;;;;;;;;5087475;28;20196;-63
2023/07/10 03:10:09;;;;;;;6.75;6.15;;;;;;;;;;5076118;28;20452;-63
2023/07/10 03:12:36;;;;;;;6.78;6.18;;;;;;;;;;5077551;28;20295;-63
2023/07/10 03:15:09;;;;;;;7.03;6.40;;;;;;;;;;5077038;28;20204;-63
2023/07/10 03:17:37;;;;;;;6.95;6.35;;;;;;;;;;5077216;28;20227;-63
2023/07/10 03:20:05;;;;;;;7.32;6.55;;;;;;;;;;5077384;28;20251;-63
2023/07/10 03:22:33;;;;;;;6.75;6.15;;;;;;;;;;5077301;28;20209;-63
2023/07/10 03:25:00;;;;;;;6.80;6.18;;;;;;;;;;5077258;28;20204;-63
2023/07/10 03:27:29;;;;;;;7.20;6.40;;;;;;;;;;5076703;28;20230;-63
2023/07/10 03:29:57;;;;;;;7.68;7.00;;;;;;;;;;5076616;28;20205;-63
2023/07/10 03:32:26;;;;;;;7.35;6.65;;;;;;;;;;5077115;28;20212;-63
2023/07/10 03:34:55;;;;;;;7.38;6.68;;;;;;;;;;5076756;28;20215;-63
2023/07/10 03:37:22;;;;;;;6.88;6.32;;;;;;;;;;5076937;28;20234;-62
2023/07/10 03:39:50;;;;;;;6.90;6.38;;;;;;;;;;5076826;28;20485;-63
2023/07/10 03:42:17;;;;;;;7.45;6.75;;;;;;;;;;5077057;28;20204;-63
2023/07/10 03:44:45;;;;;;;7.07;6.38;;;;;;;;;;5076497;28;20492;-63
2023/07/10 03:47:12;;;;;;;7.35;6.47;;;;;;;;;;5076639;28;20201;-63
2023/07/10 03:49:41;;;;;;;7.30;6.60;;;;;;;;;;5076539;28;20214;-63
2023/07/10 03:52:08;;;;;;;7.03;6.40;;;;;;;;;;5076705;28;20595;-63
2023/07/10 03:54:37;;;;;;;7.25;6.53;;;;;;;;;;5075901;28;20331;-63
2023/07/10 03:57:04;;;;;;;7.97;7.00;;;;;;;;;;5076049;28;20263;-63
2023/07/10 03:59:32;;;;;;;7.13;6.53;;;;;;;;;;5075794;28;20204;-63
2023/07/10 04:01:59;;;;;;;7.15;6.55;;;;;;;;;;5075734;28;20211;-63
2023/07/10 04:04:26;;;;;;;6.80;6.20;;;;;;;;;;5076225;28;20208;-63
2023/07/10 04:06:55;;;;;;;6.57;6.07;;;;;;;;;;5076196;28;20212;-63
2023/07/10 04:09:23;;;;;;;6.80;6.20;;;;;;;;;;5075974;28;20212;-63
2023/07/10 04:11:50;;;;;;;7.10;6.50;;;;;;;;;;5075447;28;20283;-63
2023/07/10 04:14:18;;;;;;;6.50;6.00;;;;;;;;;;5075707;28;20211;-63
2023/07/10 04:16:45;;;;;;;7.40;6.47;;;;;;;;;;5076993;28;20396;-63
2023/07/10 04:19:12;;;;;;;6.80;6.20;;;;;;;;;;5080213;28;20236;-63
2023/07/10 04:21:39;;;;;;;7.53;6.93;;;;;;;;;;5078850;28;20295;-62
2023/07/10 04:24:09;;;;;;;7.13;6.60;;;;;;;;;;5079419;28;20227;-63
2023/07/10 04:26:36;;;;;;;7.00;6.38;;;;;;;;;;5079262;28;20200;-63
2023/07/10 04:29:05;;;;;;;6.90;6.30;;;;;;;;;;5079257;28;20204;-63
2023/07/10 04:31:32;;;;;;;8.00;7.20;;;;;;;;;;5079095;28;20204;-62
2023/07/10 04:34:00;;;;;;;7.30;6.70;;;;;;;;;;5078803;28;20307;-63
2023/07/10 04:36:28;;;;;;;6.95;6.35;;;;;;;;;;5078596;28;20234;-63
2023/07/10 04:38:55;;;;;;;7.43;6.72;;;;;;;;;;5078622;28;20204;-63
2023/07/10 04:41:25;;;;;;;6.97;6.38;;;;;;;;;;5079026;28;20623;-62
2023/07/10 04:43:52;;;;;;;7.45;6.80;;;;;;;;;;5078483;28;20212;-63
2023/07/10 04:46:20;;;;;;;7.10;6.50;;;;;;;;;;5079286;28;20215;-63
2023/07/10 04:48:48;;;;;;;7.82;7.05;;;;;;;;;;5078685;28;20227;-63
2023/07/10 04:51:16;;;;;;;7.45;6.82;;;;;;;;;;5078604;28;20227;-63
2023/07/10 04:53:44;;;;;;;6.93;6.43;;;;;;;;;;5078228;28;20693;-63
2023/07/10 04:56:13;;;;;;;6.82;6.22;;;;;;;;;;5078528;28;20310;-63
2023/07/10 04:58:49;;;;;;;7.20;6.50;;;;;;;;;;5078492;28;20202;-63
2023/07/10 05:01:17;;;;;;;7.07;6.50;;;;;;;;;;5077853;28;20203;-63
2023/07/10 05:03:44;;;;;;;7.00;6.40;;;;;;;;;;5078090;28;20204;-62
2023/07/10 05:06:12;;;;;;;7.07;6.57;;;;;;;;;;5078205;28;20223;-62
2023/07/10 05:08:39;;;;;;;7.40;6.75;;;;;;;;;;5078384;28;20499;-63
2023/07/10 05:11:06;;;;;;;7.57;6.97;;;;;;;;;;5078438;28;20619;-63
2023/07/10 05:13:34;;;;;;;7.70;6.88;;;;;;;;;;5078031;28;20212;-63
2023/07/10 05:16:03;;;;;;;7.80;7.03;;;;;;;;;;5077718;28;20219;-63
2023/07/10 05:18:30;;;;;;;7.85;7.25;;;;;;;;;;5077033;28;20215;-62
2023/07/10 05:20:58;;;;;;;7.50;6.90;;;;;;;;;;5077618;28;20222;-63
2023/07/10 05:23:26;;;;;;;7.47;6.80;;;;;;;;;;5077032;28;20557;-63
2023/07/10 05:25:57;;;;;;;7.45;6.75;;;;;;;;;;5077571;28;20211;-63
2023/07/10 05:28:24;;;;;;;7.97;7.38;;;;;;;;;;5076634;28;20215;-63
2023/07/10 05:30:52;;;;;;;8.38;7.65;;;;;;;;;;5077830;28;20511;-63
2023/07/10 05:33:21;;;;;;;7.40;6.80;;;;;;;;;;5077139;28;20216;-63
2023/07/10 05:35:52;;;;;;;8.07;7.40;;;;;;;;;;5077657;28;20204;-62
2023/07/10 05:38:19;;;;;;;7.60;7.00;;;;;;;;;;5077399;28;20234;-63
2023/07/10 05:40:47;;;;;;;7.85;7.15;;;;;;;;;;5077287;28;20208;-63
2023/07/10 05:43:14;;;;;;;7.55;6.95;;;;;;;;;;5077313;28;20283;-63
2023/07/10 05:45:42;;;;;;;7.75;7.13;;;;;;;;;;5077614;28;20209;-63
2023/07/10 05:48:10;;;;;;;7.90;7.18;;;;;;;;;;5076695;28;20204;-63
2023/07/10 05:50:39;;;;;;;8.35;7.55;;;;;;;;;;5077675;28;20235;-63
2023/07/10 05:53:06;;;;;;;8.18;7.47;;;;;;;;;;5076504;28;20674;-62
2023/07/10 05:55:34;;;;;;;8.43;7.55;;;;;;;;;;5076664;28;20214;-62
2023/07/10 05:58:01;;;;;;;8.68;7.70;;;;;;;;;;5076105;28;20224;-63
2023/07/10 06:00:29;;;;;;;8.35;7.50;;;;;;;;;;5076305;28;20789;-63
2023/07/10 06:02:56;;;;;;;7.90;7.25;;;;;;;;;;5076424;28;20209;-63
2023/07/10 06:05:24;;;;;;;7.72;7.03;;;;;;;;;;5076381;28;20207;-62
2023/07/10 06:07:52;;;;;;;8.38;7.68;;;;;;;;;;5076254;28;20262;-63
2023/07/10 06:10:19;;;;;;;7.70;7.10;;;;;;;;;;5074997;28;20231;-63
2023/07/10 06:12:47;;;;;;;7.57;6.97;;;;;;;;;;5075237;28;20215;-63
2023/07/10 06:15:14;;;;;;;8.27;7.55;;;;;;;;;;5075684;28;20235;-63
2023/07/10 06:17:42;;;;;;;7.68;7.00;;;;;;;;;;5076036;28;20225;-63
2023/07/10 06:20:09;;;;;;;8.02;7.32;;;;;;;;;;5075252;28;20303;-63
2023/07/10 06:22:37;;;;;;;8.00;7.30;;;;;;;;;;5076137;28;20204;-63
2023/07/10 06:25:06;;;;;;;7.82;7.18;;;;;;;;;;5075800;28;20210;-63
2023/07/10 06:27:34;;;;;;;8.43;7.60;;;;;;;;;;5076228;28;20231;-62
2023/07/10 06:30:02;;;;;;;8.38;7.63;;;;;;;;;;5076078;28;20200;-63
2023/07/10 06:32:30;;;;;;;8.40;7.70;;;;;;;;;;5076489;28;20204;-63
2023/07/10 06:34:58;;;;;;;7.93;7.10;;;;;;;;;;5076368;28;20204;-63
2023/07/10 06:37:25;;;;;;;8.25;7.63;;;;;;;;;;5076096;28;20243;-63
2023/07/10 06:40:08;;;;;;;8.35;7.53;;;;;;;;;;5075215;28;20607;-63
2023/07/10 06:42:37;;;;;;;8.35;7.65;;;;;;;;;;5072345;28;20200;-63
2023/07/10 06:45:04;;;;;;;8.73;7.93;;;;;;;;;;5074677;28;20219;-63
2023/07/10 06:47:32;;;;;;;9.45;7.85;;;;;;;;;;5075123;28;20219;-63
2023/07/10 06:50:00;;;;;;;8.05;7.40;;;;;;;;;;5075572;28;20303;-63
2023/07/10 06:52:27;;;;;;;8.32;7.50;;;;;;;;;;5074907;28;20212;-63
2023/07/10 06:54:54;;;;;;;8.27;7.53;;;;;;;;;;5074880;28;20228;-63
2023/07/10 06:57:22;;;;;;;9.18;8.13;;;;;;;;;;5074350;28;20219;-63
2023/07/10 06:59:50;;;;;;;8.85;8.05;;;;;;;;;;5075148;28;20215;-63
2023/07/10 07:02:18;;;;;;;8.43;7.68;;;;;;;;;;5075468;28;20214;-63
2023/07/10 07:04:45;;;;;;;8.50;7.53;;;;;;;;;;5075473;28;20211;-63
2023/07/10 07:07:13;;;;;;;8.68;7.88;;;;;;;;;;5075486;28;20591;-63
2023/07/10 07:09:40;;;;;;;8.63;7.82;;;;;;;;;;5075448;28;20231;-63
2023/07/10 07:12:08;;;;;;;8.88;7.70;;;;;;;;;;5075763;28;20205;-63
2023/07/10 07:14:35;;;;;;;8.68;7.90;;;;;;;;;;5075562;28;20216;-62
2023/07/10 07:17:05;;;;;;;8.63;7.85;;;;;;;;;;5075247;28;20460;-63
2023/07/10 07:19:33;;;;;;;8.90;8.10;;;;;;;;;;5074695;28;20215;-63
2023/07/10 07:22:01;;;;;;;8.18;7.57;;;;;;;;;;5074541;28;20212;-63
2023/07/10 07:24:29;;;;;;;8.32;7.53;;;;;;;;;;5075180;28;20488;-63
2023/07/10 07:26:56;;;;;;;10.07;8.25;;;;;;;;;;5074462;28;20209;-64
2023/07/10 07:29:23;;;;;;;8.32;7.47;;;;;;;;;;5074452;28;20300;-63
2023/07/10 07:31:51;;;;;;;8.40;7.70;;;;;;;;;;5075297;28;20211;-63
2023/07/10 07:34:19;;;;;;;8.45;7.63;;;;;;;;;;5075120;28;20215;-65
2023/07/10 07:36:47;;;;;;;7.70;7.00;;;;;;;;;;5074607;28;20211;-65
2023/07/10 07:39:15;;;;;;;8.10;7.40;;;;;;;;;;5074419;28;20215;-66
2023/07/10 07:41:43;;;;;;;9.48;7.57;;;;;;;;;;5074554;28;20226;-67
2023/07/10 07:44:10;;;;;;;7.70;7.00;;;;;;;;;;5074201;28;20207;-67
2023/07/10 07:46:37;;;;;;;7.88;7.18;;;;;;;;;;5074294;28;20482;-67
2023/07/10 07:49:05;;;;;;;7.65;6.88;;;;;;;;;;5073975;28;20212;-67
2023/07/10 07:51:36;;;;;;;7.18;6.55;;;;;;;;;;5074646;28;20215;-66
2023/07/10 07:54:05;;;;;;;7.00;6.40;;;;;;;;;;5078345;28;20243;-67
2023/07/10 07:56:32;;;;;;;7.22;6.63;;;;;;;;;;5078263;28;20207;-67
2023/07/10 07:59:00;;;;;;;7.05;6.35;;;;;;;;;;5077833;28;20227;-67
2023/07/10 08:01:27;;;;;;;7.78;6.75;;;;;;;;;;5077602;28;20302;-67
2023/07/10 08:03:56;;;;;;;7.63;6.45;;;;;;;;;;5078588;28;20204;-67
2023/07/10 08:06:23;;;;;;;6.93;6.32;;;;;;;;;;5078417;28;20196;-67
2023/07/10 08:08:52;;;;;;;6.82;6.22;;;;;;;;;;5078215;28;20230;-67
2023/07/10 08:11:21;;;;;;;6.45;5.95;;;;;;;;;;5077967;28;20204;-67
2023/07/10 08:13:49;;;;;;;6.70;5.60;;;;;;;;;;5078079;28;20584;-67
2023/07/10 08:16:16;;;;;;;7.88;5.85;;;;;;;;;;5077124;28;20205;-68
2023/07/10 08:18:44;;;;;;;6.22;5.68;;;;;;;;;;5077333;28;20220;-67
2023/07/10 08:21:12;;;;;;;6.72;5.82;;;;;;;;;;5077217;28;20208;-68
2023/07/10 08:23:40;;;;;;;6.50;5.90;;;;;;;;;;5076976;28;20204;-67
2023/07/10 08:26:09;;;;;;;6.53;5.90;;;;;;;;;;5077346;28;20290;-67
2023/07/10 08:28:37;;;;;;;8.30;5.82;;;;;;;;;;5075540;28;20196;-66
2023/07/10 08:31:04;;;;;;;7.40;5.53;;;;;;;;;;5077326;28;20200;-67
2023/07/10 08:33:32;;;;;;;6.50;5.90;;;;;;;;;;5077105;28;20218;-69
2023/07/10 08:35:59;;;;;;;6.40;5.80;;;;;;;;;;5077976;28;20204;-68
2023/07/10 08:38:28;;;;;;;6.75;5.88;;;;;;;;;;5077547;28;20628;-67
2023/07/10 08:40:56;;;;;;;6.78;5.57;;;;;;;;;;5077084;28;20312;-67
2023/07/10 08:43:30;;;;;;;5.75;5.25;;;;;;;;;;5077419;28;20204;-68
2023/07/10 08:46:03;;;;;;;6.68;5.90;;;;;;;;;;5077536;28;20547;-67
2023/07/10 08:48:32;;;;;;;6.20;5.60;;;;;;;;;;5076443;28;20489;-67
2023/07/10 08:51:02;;;;;;;6.32;5.78;;;;;;;;;;5077277;28;20569;-68
2023/07/10 08:53:31;;;;;;;6.10;5.60;;;;;;;;;;5077188;28;20270;-68
2023/07/10 08:56:02;;;;;;;6.07;5.47;;;;;;;;;;5077486;28;20231;-67
2023/07/10 08:58:34;;;;;;;7.47;5.60;;;;;;;;;;5077311;28;20269;-67
2023/07/10 09:01:03;;;;;;;6.85;5.65;;;;;;;;;;5077346;28;20239;-70
2023/07/10 09:03:41;;;;;;;6.13;5.53;;;;;;;;;;5075545;28;20204;-68
2023/07/10 09:06:12;;;;;;;6.25;5.65;;;;;;;;;;5076594;28;20317;-68
2023/07/10 09:08:40;;;;;;;8.18;5.68;;;;;;;;;;5076547;28;20314;-68
2023/07/10 09:11:07;;;;;;;6.00;5.40;;;;;;;;;;5076621;28;20212;-67
2023/07/10 09:13:39;;;;;;;6.47;5.88;;;;;;;;;;5076674;28;20204;-68
2023/07/10 09:16:12;;;;;;;6.30;5.70;;;;;;;;;;5076409;28;20196;-68
2023/07/10 09:18:43;;;;;;;6.13;5.60;;;;;;;;;;5075695;28;20240;-68
2023/07/10 09:21:16;;;;;;;6.50;5.90;;;;;;;;;;5077264;28;20212;-68
2023/07/10 09:23:44;;;;;;;5.97;5.43;;;;;;;;;;5077175;28;20297;-67
2023/07/10 09:26:13;;;;;;;6.30;5.70;;;;;;;;;;5076363;28;20200;-67
2023/07/10 09:28:42;;;;;;;6.88;5.65;;;;;;;;;;5076363;28;20204;-67
2023/07/10 09:31:17;;;;;;;6.72;5.60;;;;;;;;;;5076025;28;20222;-67
2023/07/10 09:33:45;;;;;;;6.65;6.13;;;;;;;;;;5076650;28;20274;-67
2023/07/10 09:36:16;;;;;;;6.70;6.10;;;;;;;;;;5075815;28;20204;-66
2023/07/10 09:38:45;;;;;;;7.97;5.90;;;;;;;;;;5075604;28;20225;-67
2023/07/10 09:41:13;;;;;;;6.68;6.07;;;;;;;;;;5075898;28;20205;-67
2023/07/10 09:43:49;;;;;;;6.30;5.68;;;;;;;;;;5075680;28;20330;-66
2023/07/10 09:46:16;;;;;;;6.30;5.70;;;;;;;;;;5075566;28;20227;-67
2023/07/10 09:48:47;;;;;;;7.38;6.38;;;;;;;;;;5075448;28;20291;-67
2023/07/10 09:51:14;;;;;;;7.35;6.30;;;;;;;;;;5075727;28;20204;-67
2023/07/10 09:53:45;;;;;;;7.18;6.47;;;;;;;;;;5075025;28;20282;-67
2023/07/10 09:56:21;;;;;;;6.70;6.03;;;;;;;;;;5074800;28;20204;-67
2023/07/10 09:58:50;;;;;;;7.03;5.72;;;;;;;;;;5074855;28;20999;-67
2023/07/10 10:01:19;;;;;;;8.55;6.15;;;;;;;;;;5075033;28;20208;-67
2023/07/10 10:03:46;;;;;;;8.15;6.18;;;;;;;;;;5075038;28;20209;-67
2023/07/10 10:06:21;;;;;;;7.22;6.20;;;;;;;;;;5074899;28;20204;-67
2023/07/10 10:08:50;;;;;;;7.18;6.53;;;;;;;;;;5075199;28;20506;-67
2023/07/10 10:11:18;;;;;;;6.95;6.35;;;;;;;;;;5074843;28;20204;-67
2023/07/10 10:13:47;;;;;;;7.63;6.72;;;;;;;;;;5074612;28;20444;-67
2023/07/10 10:16:20;;;;;;;7.30;6.55;;;;;;;;;;5073876;28;20208;-67
2023/07/10 10:18:50;;;;;;;7.45;6.70;;;;;;;;;;5075016;28;20224;-67
2023/07/10 10:21:19;;;;;;;7.13;6.50;;;;;;;;;;5074529;28;20203;-66
2023/07/10 10:23:47;;;;;;;7.85;7.13;;;;;;;;;;5074589;28;20315;-67
2023/07/10 10:26:42;;;;;;;7.32;6.63;;;;;;;;;;5075447;28;20592;-67
2023/07/10 10:29:26;;;;;;;8.00;7.22;;;;;;;;;;5016967;28;20255;-67
2023/07/10 10:31:59;;;;;;;8.32;7.32;;;;;;;;;;5074973;28;20211;-67
2023/07/10 10:34:33;;;;;;;8.43;7.50;;;;;;;;;;5074586;28;20196;-67
2023/07/10 10:37:06;;;;;;;8.30;7.60;;;;;;;;;;5075032;28;20200;-67
2023/07/10 10:39:38;;;;;;;8.15;7.35;;;;;;;;;;5074314;28;20232;-67
2023/07/10 10:42:10;;;;;;;8.10;7.40;;;;;;;;;;5074084;28;20204;-66
2023/07/10 10:44:49;;;;;;;8.50;7.78;;;;;;;;;;5073559;28;20288;-65
2023/07/10 10:47:31;;;;;;;8.70;7.90;;;;;;;;;;5073234;28;20200;-67
2023/07/10 10:50:08;;;;;;;8.70;7.85;;;;;;;;;;5073938;28;20685;-67
2023/07/10 10:52:41;;;;;;;8.55;7.70;;;;;;;;;;5074426;28;20204;-67
2023/07/10 10:55:24;;;;;;;8.20;7.43;;;;;;;;;;5073834;28;20244;-67
2023/07/10 10:57:58;;;;;;;8.60;7.70;;;;;;;;;;5071012;28;20310;-67
2023/07/10 11:00:31;;;;;;;8.30;7.50;;;;;;;;;;5073298;28;20265;-67
2023/07/10 11:03:06;;;;;;;8.20;7.50;;;;;;;;;;5073870;28;20212;-67
2023/07/10 11:05:36;;;;;;;8.40;7.70;;;;;;;;;;5073767;28;20214;-67
2023/07/10 11:08:05;;;;;;;8.88;7.38;;;;;;;;;;5074466;28;20212;-67
2023/07/10 11:10:36;;;;;;;8.55;7.85;;;;;;;;;;5073588;28;20204;-67
2023/07/10 11:13:03;;;;;;;7.80;7.00;;;;;;;;;;5074096;28;20211;-67
2023/07/10 11:15:32;;;;;;;7.85;7.15;;;;;;;;;;5074078;28;20208;-67
2023/07/10 11:18:00;;;;;;;8.40;7.60;;;;;;;;;;5074823;28;20208;-67
2023/07/10 11:20:29;;;;;;;7.80;7.10;;;;;;;;;;5074262;28;20204;-67
2023/07/10 11:22:57;;;;;;;7.63;7.03;;;;;;;;;;5074422;28;20207;-67
2023/07/10 11:25:34;;;;;;;7.95;7.15;;;;;;;;;;5073968;28;20197;-67
2023/07/10 11:28:05;;;;;;;8.10;6.60;;;;;;;;;;5073146;28;20228;-68
2023/07/10 11:30:35;;;;;;;7.40;6.80;;;;;;;;;;5074288;28;20210;-67
2023/07/10 11:33:04;;;;;;;7.43;6.75;;;;;;;;;;5073428;28;20204;-67
2023/07/10 11:35:33;;;;;;;7.63;7.07;;;;;;;;;;5073712;28;20211;-67
2023/07/10 11:38:15;;;;;;;9.23;7.10;;;;;;;;;;5073472;28;20569;-67
2023/07/10 11:40:46;;;;;;;8.63;7.82;;;;;;;;;;5073879;28;20204;-67
2023/07/10 11:43:32;;;;;;;7.68;6.97;;;;;;;;;;5073992;28;20219;-67
2023/07/10 11:46:04;;;;;;;8.68;7.90;;;;;;;;;;5073945;28;20273;-67
2023/07/10 11:48:36;;;;;;;7.72;7.03;;;;;;;;;;5073603;28;20304;-67
2023/07/10 11:51:05;;;;;;;7.82;7.15;;;;;;;;;;5073595;28;20311;-67
2023/07/10 11:53:32;;;;;;;7.60;6.80;;;;;;;;;;5073526;28;20734;-67
2023/07/10 11:56:00;;;;;;;7.55;6.85;;;;;;;;;;5074348;28;20588;-67
2023/07/10 11:58:29;;;;;;;7.88;7.18;;;;;;;;;;5073159;28;20323;-67
2023/07/10 12:01:05;;;;;;;7.00;6.40;;;;;;;;;;5073615;28;20204;-67
2023/07/10 12:03:34;;;;;;;7.22;6.63;;;;;;;;;;5073671;28;20231;-67
2023/07/10 12:06:02;;;;;;;6.95;6.45;;;;;;;;;;5073140;28;20196;-67
2023/07/10 12:08:32;;;;;;;6.90;6.25;;;;;;;;;;5073937;28;20220;-67
2023/07/10 12:10:59;;;;;;;6.45;5.95;;;;;;;;;;5073237;28;20271;-67
2023/07/10 12:13:27;;;;;;;6.80;6.20;;;;;;;;;;5072572;28;20211;-67
2023/07/10 12:15:57;;;;;;;6.80;6.13;;;;;;;;;;5073021;28;20212;-67
2023/07/10 12:18:25;;;;;;;7.18;6.38;;;;;;;;;;5072995;28;20266;-67
2023/07/10 12:20:54;;;;;;;6.32;5.82;;;;;;;;;;5074084;28;20201;-67
2023/07/10 12:23:22;;;;;;;7.10;6.40;;;;;;;;;;5073987;28;20485;-67
2023/07/10 12:25:52;;;;;;;6.78;6.10;;;;;;;;;;5073852;28;20196;-67
2023/07/10 12:28:20;;;;;;;7.00;6.40;;;;;;;;;;5074007;28;20548;-67
2023/07/10 12:30:50;;;;;;;6.80;6.30;;;;;;;;;;5073852;28;20211;-67
2023/07/10 12:33:42;;;;;;;6.45;5.85;;;;;;;;;;5073339;28;20204;-67
2023/07/10 12:36:18;;;;;;;7.47;6.88;;;;;;;;;;5048967;28;20213;-67
2023/07/10 12:38:46;;;;;;;7.38;6.78;;;;;;;;;;5076176;28;20256;-67
2023/07/10 12:41:15;;;;;;;7.35;6.75;;;;;;;;;;5075934;28;20200;-67
2023/07/10 12:43:47;;;;;;;7.70;7.00;;;;;;;;;;5076105;28;20262;-67
2023/07/10 12:46:15;;;;;;;7.93;7.22;;;;;;;;;;5076357;28;20204;-67
2023/07/10 12:48:43;;;;;;;7.38;6.78;;;;;;;;;;5075821;28;20576;-67
2023/07/10 12:51:14;;;;;;;7.20;6.63;;;;;;;;;;5075291;28;20500;-67
2023/07/10 12:53:42;;;;;;;7.82;7.13;;;;;;;;;;5077021;28;20232;-67
2023/07/10 12:56:14;;;;;;;7.25;6.65;;;;;;;;;;5077045;28;20287;-67
2023/07/10 12:58:43;;;;;;;7.60;7.00;;;;;;;;;;5075510;28;20714;-67
2023/07/10 13:01:21;;;;;;;7.10;6.50;;;;;;;;;;5075692;28;20203;-67
2023/07/10 13:04:00;;;;;;;8.00;7.30;;;;;;;;;;5075286;28;20239;-67
2023/07/10 13:06:27;;;;;;;7.60;7.03;;;;;;;;;;5075875;28;20211;-67
2023/07/10 13:08:57;;;;;;;7.10;6.50;;;;;;;;;;5075561;28;20576;-67
2023/07/10 13:11:25;;;;;;;7.20;6.70;;;;;;;;;;5075190;28;20246;-67
2023/07/10 13:13:54;;;;;;;7.07;6.57;;;;;;;;;;5075404;28;20205;-67
2023/07/10 13:16:22;;;;;;;7.38;6.78;;;;;;;;;;5075922;28;20671;-67
2023/07/10 13:18:50;;;;;;;7.75;7.20;;;;;;;;;;5075312;28;20228;-67
2023/07/10 13:21:20;;;;;;;7.88;7.28;;;;;;;;;;5076296;28;20200;-67
2023/07/10 13:23:47;;;;;;;7.13;6.63;;;;;;;;;;5076265;28;20231;-66
2023/07/10 13:26:18;;;;;;;7.88;7.25;;;;;;;;;;5075916;28;20223;-66
2023/07/10 13:28:46;;;;;;;6.88;6.38;;;;;;;;;;5075833;28;20295;-67
2023/07/10 13:31:15;;;;;;;7.90;7.28;;;;;;;;;;5075735;28;20200;-66
2023/07/10 13:33:43;;;;;;;7.95;7.25;;;;;;;;;;5075733;28;20204;-67
2023/07/10 13:36:13;;;;;;;8.23;7.63;;;;;;;;;;5075200;28;20493;-67
2023/07/10 13:38:41;;;;;;;7.60;6.93;;;;;;;;;;5075742;28;20200;-67
2023/07/10 13:41:09;;;;;;;6.95;6.45;;;;;;;;;;5075228;28;20212;-67
2023/07/10 13:43:37;;;;;;;7.85;7.25;;;;;;;;;;5074734;28;20287;-67
2023/07/10 13:46:14;;;;;;;7.95;7.22;;;;;;;;;;5075397;28;20243;-67
2023/07/10 13:48:43;;;;;;;8.10;7.50;;;;;;;;;;5074880;28;20247;-67
2023/07/10 13:51:12;;;;;;;9.38;8.68;;;;;;;;;;5073995;28;20200;-67
2023/07/10 13:53:40;;;;;;;8.88;8.27;;;;;;;;;;5074428;28;20323;-67
2023/07/10 13:56:12;;;;;;;8.93;8.20;;;;;;;;;;5074953;28;20204;-67
2023/07/10 13:58:40;;;;;;;8.88;8.18;;;;;;;;;;5075260;28;20759;-67
2023/07/10 14:01:07;;;;;;;8.63;7.93;;;;;;;;;;5074142;28;20208;-67
2023/07/10 14:03:35;;;;;;;8.88;8.02;;;;;;;;;;5074917;28;20200;-67
2023/07/10 14:06:04;;;;;;;9.30;8.60;;;;;;;;;;5074677;28;20236;-67
2023/07/10 14:08:32;;;;;;;8.57;7.88;;;;;;;;;;5074680;28;20608;-67
2023/07/10 14:11:01;;;;;;;8.55;7.82;;;;;;;;;;5074062;28;20208;-67
2023/07/10 14:13:28;;;;;;;9.27;8.38;;;;;;;;;;5074428;28;20266;-66
2023/07/10 14:16:00;;;;;;;9.00;8.30;;;;;;;;;;5074693;28;20584;-67
2023/07/10 14:18:29;;;;;;;9.07;8.38;;;;;;;;;;5074520;28;20204;-67
2023/07/10 14:20:58;;;;;;;9.02;8.32;;;;;;;;;;5073751;28;20658;-68
2023/07/10 14:23:27;;;;;;;8.60;7.95;;;;;;;;;;5074204;28;20204;-64
2023/07/10 14:25:55;;;;;;;9.20;8.38;;;;;;;;;;5075269;28;20596;-66
2023/07/10 14:28:24;;;;;;;8.73;8.02;;;;;;;;;;5073886;28;20207;-66
2023/07/10 14:30:52;;;;;;;9.15;8.45;;;;;;;;;;5074837;28;20200;-66
2023/07/10 14:33:20;;;;;;;10.60;9.50;;;;;;;;;;5074845;28;20280;-66
2023/07/10 14:35:49;;;;;;;9.77;8.98;;;;;;;;;;5074842;28;20215;-66
2023/07/10 14:38:19;;;;;;;9.80;9.10;;;;;;;;;;5073684;28;20295;-73
2023/07/10 14:40:48;;;;;;;9.77;8.98;;;;;;;;;;5074849;28;20228;-66
2023/07/10 14:43:16;;;;;;;9.55;8.75;;;;;;;;;;5073011;28;20200;-66
2023/07/10 14:45:46;;;;;;;9.85;8.85;;;;;;;;;;5074096;28;20489;-66
2023/07/10 14:48:15;;;;;;;8.73;8.00;;;;;;;;;;5074051;28;20200;-66
2023/07/10 14:50:43;;;;;;;9.65;8.85;;;;;;;;;;5074384;28;20204;-66
2023/07/10 14:53:13;;;;;;;9.55;8.73;;;;;;;;;;5074258;28;20235;-66
2023/07/10 14:55:40;;;;;;;9.90;8.95;;;;;;;;;;5073311;28;20211;-64
2023/07/10 14:58:14;;;;;;;9.82;8.88;;;;;;;;;;5074944;28;20212;-64